sensor_id;sensor_type;location;lat;lon;timestamp;temperature;humidity
19536;HTU21D;9913;51.168;4.124;2022-07-22T00:02:03;14.10;77.99
19536;HTU21D;9913;51.168;4.124;2022-07-22T00:04:31;14.09;77.93
19536;HTU21D;9913;51.168;4.124;2022-07-22T00:07:01;14.06;78.01
19536;HTU21D;9913;51.168;4.124;2022-07-22T00:09:30;14.07;77.94
19536;HTU21D;9913;51.168;4.124;2022-07-22T00:11:59;14.04;77.81
19536;HTU21D;9913;51.168;4.124;2022-07-22T00:14:27;14.00;77.82
19536;HTU21D;9913;51.168;4.124;2022-07-22T00:16:56;13.97;78.08
19536;HTU21D;9913;51.168;4.124;2022-07-22T00:19:25;13.97;78.18
19536;HTU21D;9913;51.168;4.124;2022-07-22T00:21:53;13.89;78.16
19536;HTU21D;9913;51.168;4.124;2022-07-22T00:24:23;13.83;78.16
19536;HTU21D;9913;51.168;4.124;2022-07-22T00:26:51;13.85;78.14
19536;HTU21D;9913;51.168;4.124;2022-07-22T00:29:24;13.89;78.11
19536;HTU21D;9913;51.168;4.124;2022-07-22T00:31:53;13.84;78.30
19536;HTU21D;9913;51.168;4.124;2022-07-22T00:34:21;13.79;78.39
19536;HTU21D;9913;51.168;4.124;2022-07-22T00:36:51;13.75;78.42
19536;HTU21D;9913;51.168;4.124;2022-07-22T00:39:19;13.79;78.32
19536;HTU21D;9913;51.168;4.124;2022-07-22T00:41:50;13.73;78.16
19536;HTU21D;9913;51.168;4.124;2022-07-22T00:44:18;13.75;78.11
19536;HTU21D;9913;51.168;4.124;2022-07-22T00:46:47;13.73;78.18
19536;HTU21D;9913;51.168;4.124;2022-07-22T00:49:15;13.75;78.22
19536;HTU21D;9913;51.168;4.124;2022-07-22T00:51:45;13.67;78.35
19536;HTU21D;9913;51.168;4.124;2022-07-22T00:54:14;13.64;78.26
19536;HTU21D;9913;51.168;4.124;2022-07-22T00:56:43;13.66;78.27
19536;HTU21D;9913;51.168;4.124;2022-07-22T00:59:13;13.61;78.39
19536;HTU21D;9913;51.168;4.124;2022-07-22T01:01:41;13.63;78.55
19536;HTU21D;9913;51.168;4.124;2022-07-22T01:04:13;13.61;78.62
19536;HTU21D;9913;51.168;4.124;2022-07-22T01:06:42;13.56;78.59
19536;HTU21D;9913;51.168;4.124;2022-07-22T01:09:12;13.54;78.63
19536;HTU21D;9913;51.168;4.124;2022-07-22T01:11:40;13.54;78.65
19536;HTU21D;9913;51.168;4.124;2022-07-22T01:14:09;13.50;78.48
19536;HTU21D;9913;51.168;4.124;2022-07-22T01:16:39;13.47;78.67
19536;HTU21D;9913;51.168;4.124;2022-07-22T01:19:14;13.49;78.67
19536;HTU21D;9913;51.168;4.124;2022-07-22T01:21:46;13.44;78.75
19536;HTU21D;9913;51.168;4.124;2022-07-22T01:24:14;13.43;78.81
19536;HTU21D;9913;51.168;4.124;2022-07-22T01:26:43;13.41;78.85
19536;HTU21D;9913;51.168;4.124;2022-07-22T01:29:12;13.35;78.71
19536;HTU21D;9913;51.168;4.124;2022-07-22T01:31:41;13.29;78.79
19536;HTU21D;9913;51.168;4.124;2022-07-22T01:34:09;13.29;78.99
19536;HTU21D;9913;51.168;4.124;2022-07-22T01:36:37;13.27;78.90
19536;HTU21D;9913;51.168;4.124;2022-07-22T01:39:08;13.27;78.98
19536;HTU21D;9913;51.168;4.124;2022-07-22T01:41:37;13.25;79.01
19536;HTU21D;9913;51.168;4.124;2022-07-22T01:44:08;13.25;78.98
19536;HTU21D;9913;51.168;4.124;2022-07-22T01:46:38;13.30;78.82
19536;HTU21D;9913;51.168;4.124;2022-07-22T01:49:07;13.23;78.88
19536;HTU21D;9913;51.168;4.124;2022-07-22T01:51:38;13.23;78.98
19536;HTU21D;9913;51.168;4.124;2022-07-22T01:54:08;13.21;78.92
19536;HTU21D;9913;51.168;4.124;2022-07-22T01:56:37;13.17;78.97
19536;HTU21D;9913;51.168;4.124;2022-07-22T01:59:05;13.19;78.99
19536;HTU21D;9913;51.168;4.124;2022-07-22T02:01:34;13.22;79.04
19536;HTU21D;9913;51.168;4.124;2022-07-22T02:04:02;13.22;79.23
19536;HTU21D;9913;51.168;4.124;2022-07-22T02:06:31;13.15;79.01
19536;HTU21D;9913;51.168;4.124;2022-07-22T02:09:00;13.05;78.98
19536;HTU21D;9913;51.168;4.124;2022-07-22T02:11:42;13.06;79.19
19536;HTU21D;9913;51.168;4.124;2022-07-22T02:14:13;13.06;79.25
19536;HTU21D;9913;51.168;4.124;2022-07-22T02:16:42;13.05;79.26
19536;HTU21D;9913;51.168;4.124;2022-07-22T02:19:11;13.02;79.21
19536;HTU21D;9913;51.168;4.124;2022-07-22T02:21:39;13.06;79.17
19536;HTU21D;9913;51.168;4.124;2022-07-22T02:24:08;13.04;79.28
19536;HTU21D;9913;51.168;4.124;2022-07-22T02:26:36;13.05;79.13
19536;HTU21D;9913;51.168;4.124;2022-07-22T02:29:06;13.01;79.08
19536;HTU21D;9913;51.168;4.124;2022-07-22T02:31:35;12.99;79.10
19536;HTU21D;9913;51.168;4.124;2022-07-22T02:34:06;13.02;79.27
19536;HTU21D;9913;51.168;4.124;2022-07-22T02:36:36;12.96;79.30
19536;HTU21D;9913;51.168;4.124;2022-07-22T02:39:05;12.88;79.21
19536;HTU21D;9913;51.168;4.124;2022-07-22T02:41:33;12.87;79.42
19536;HTU21D;9913;51.168;4.124;2022-07-22T02:44:02;12.85;79.33
19536;HTU21D;9913;51.168;4.124;2022-07-22T02:46:32;12.86;79.30
19536;HTU21D;9913;51.168;4.124;2022-07-22T02:49:10;12.82;79.38
19536;HTU21D;9913;51.168;4.124;2022-07-22T02:51:39;12.87;79.52
19536;HTU21D;9913;51.168;4.124;2022-07-22T02:54:07;12.92;79.73
19536;HTU21D;9913;51.168;4.124;2022-07-22T02:56:36;12.86;79.44
19536;HTU21D;9913;51.168;4.124;2022-07-22T02:59:04;12.79;79.40
19536;HTU21D;9913;51.168;4.124;2022-07-22T03:01:35;12.84;79.46
19536;HTU21D;9913;51.168;4.124;2022-07-22T03:04:04;12.85;79.43
19536;HTU21D;9913;51.168;4.124;2022-07-22T03:06:35;12.93;79.62
19536;HTU21D;9913;51.168;4.124;2022-07-22T03:09:10;12.90;79.88
19536;HTU21D;9913;51.168;4.124;2022-07-22T03:11:42;12.85;79.73
19536;HTU21D;9913;51.168;4.124;2022-07-22T03:14:11;12.88;79.79
19536;HTU21D;9913;51.168;4.124;2022-07-22T03:16:41;12.82;79.69
19536;HTU21D;9913;51.168;4.124;2022-07-22T03:19:10;12.81;79.61
19536;HTU21D;9913;51.168;4.124;2022-07-22T03:21:38;12.86;79.59
19536;HTU21D;9913;51.168;4.124;2022-07-22T03:24:07;12.84;79.62
19536;HTU21D;9913;51.168;4.124;2022-07-22T03:26:35;12.84;79.59
19536;HTU21D;9913;51.168;4.124;2022-07-22T03:29:06;12.82;79.60
19536;HTU21D;9913;51.168;4.124;2022-07-22T03:31:35;12.77;79.85
19536;HTU21D;9913;51.168;4.124;2022-07-22T03:34:06;12.81;79.88
19536;HTU21D;9913;51.168;4.124;2022-07-22T03:36:38;12.78;79.76
19536;HTU21D;9913;51.168;4.124;2022-07-22T03:39:08;12.79;79.71
19536;HTU21D;9913;51.168;4.124;2022-07-22T03:41:36;12.75;79.86
19536;HTU21D;9913;51.168;4.124;2022-07-22T03:44:05;12.72;79.60
19536;HTU21D;9913;51.168;4.124;2022-07-22T03:46:33;12.75;79.58
19536;HTU21D;9913;51.168;4.124;2022-07-22T03:49:03;12.75;79.67
19536;HTU21D;9913;51.168;4.124;2022-07-22T03:51:33;12.72;79.76
19536;HTU21D;9913;51.168;4.124;2022-07-22T03:54:01;12.69;79.76
19536;HTU21D;9913;51.168;4.124;2022-07-22T03:56:30;12.63;79.60
19536;HTU21D;9913;51.168;4.124;2022-07-22T03:58:59;12.60;79.62
19536;HTU21D;9913;51.168;4.124;2022-07-22T04:01:29;12.65;79.76
19536;HTU21D;9913;51.168;4.124;2022-07-22T04:03:59;12.63;79.72
19536;HTU21D;9913;51.168;4.124;2022-07-22T04:06:39;12.66;79.55
19536;HTU21D;9913;51.168;4.124;2022-07-22T04:09:18;12.70;79.54
19536;HTU21D;9913;51.168;4.124;2022-07-22T04:11:46;12.67;79.49
19536;HTU21D;9913;51.168;4.124;2022-07-22T04:14:15;12.72;79.57
19536;HTU21D;9913;51.168;4.124;2022-07-22T04:16:45;12.75;79.60
19536;HTU21D;9913;51.168;4.124;2022-07-22T04:19:18;12.82;79.57
19536;HTU21D;9913;51.168;4.124;2022-07-22T04:21:52;12.82;79.42
19536;HTU21D;9913;51.168;4.124;2022-07-22T04:24:23;12.87;79.13
19536;HTU21D;9913;51.168;4.124;2022-07-22T04:26:52;12.88;79.21
19536;HTU21D;9913;51.168;4.124;2022-07-22T04:29:22;12.88;79.25
19536;HTU21D;9913;51.168;4.124;2022-07-22T04:31:52;12.93;79.27
19536;HTU21D;9913;51.168;4.124;2022-07-22T04:34:28;12.97;79.25
19536;HTU21D;9913;51.168;4.124;2022-07-22T04:36:59;12.97;79.15
19536;HTU21D;9913;51.168;4.124;2022-07-22T04:39:33;13.05;79.12
19536;HTU21D;9913;51.168;4.124;2022-07-22T04:42:02;13.16;78.92
19536;HTU21D;9913;51.168;4.124;2022-07-22T04:44:32;13.16;78.94
19536;HTU21D;9913;51.168;4.124;2022-07-22T04:47:03;13.21;78.95
19536;HTU21D;9913;51.168;4.124;2022-07-22T04:49:38;13.23;78.82
19536;HTU21D;9913;51.168;4.124;2022-07-22T04:52:10;13.27;78.77
19536;HTU21D;9913;51.168;4.124;2022-07-22T04:54:46;13.35;78.72
19536;HTU21D;9913;51.168;4.124;2022-07-22T04:57:15;13.41;78.63
19536;HTU21D;9913;51.168;4.124;2022-07-22T04:59:43;13.40;78.55
19536;HTU21D;9913;51.168;4.124;2022-07-22T05:02:12;13.47;78.50
19536;HTU21D;9913;51.168;4.124;2022-07-22T05:04:43;13.50;78.57
19536;HTU21D;9913;51.168;4.124;2022-07-22T05:07:14;13.54;78.59
19536;HTU21D;9913;51.168;4.124;2022-07-22T05:09:42;13.55;78.61
19536;HTU21D;9913;51.168;4.124;2022-07-22T05:12:14;13.67;78.49
19536;HTU21D;9913;51.168;4.124;2022-07-22T05:14:43;13.80;78.39
19536;HTU21D;9913;51.168;4.124;2022-07-22T05:17:11;13.83;78.30
19536;HTU21D;9913;51.168;4.124;2022-07-22T05:19:56;13.98;77.93
19536;HTU21D;9913;51.168;4.124;2022-07-22T05:22:25;14.05;77.92
19536;HTU21D;9913;51.168;4.124;2022-07-22T05:24:58;14.15;77.67
19536;HTU21D;9913;51.168;4.124;2022-07-22T05:27:27;14.29;77.56
19536;HTU21D;9913;51.168;4.124;2022-07-22T05:29:56;14.37;77.34
19536;HTU21D;9913;51.168;4.124;2022-07-22T05:32:24;14.38;77.32
19536;HTU21D;9913;51.168;4.124;2022-07-22T05:34:57;14.43;77.24
19536;HTU21D;9913;51.168;4.124;2022-07-22T05:37:28;14.55;77.20
19536;HTU21D;9913;51.168;4.124;2022-07-22T05:39:57;14.65;77.22
19536;HTU21D;9913;51.168;4.124;2022-07-22T05:42:25;14.77;76.95
19536;HTU21D;9913;51.168;4.124;2022-07-22T05:44:53;14.95;76.70
19536;HTU21D;9913;51.168;4.124;2022-07-22T05:47:22;15.12;76.37
19536;HTU21D;9913;51.168;4.124;2022-07-22T05:49:50;15.27;75.99
19536;HTU21D;9913;51.168;4.124;2022-07-22T05:52:19;15.42;75.65
19536;HTU21D;9913;51.168;4.124;2022-07-22T05:54:49;15.55;75.36
19536;HTU21D;9913;51.168;4.124;2022-07-22T05:57:19;15.59;75.33
19536;HTU21D;9913;51.168;4.124;2022-07-22T05:59:48;15.66;74.99
19536;HTU21D;9913;51.168;4.124;2022-07-22T06:02:16;15.69;74.77
19536;HTU21D;9913;51.168;4.124;2022-07-22T06:04:47;15.75;74.92
19536;HTU21D;9913;51.168;4.124;2022-07-22T06:07:18;15.85;75.04
19536;HTU21D;9913;51.168;4.124;2022-07-22T06:09:54;15.92;74.46
19536;HTU21D;9913;51.168;4.124;2022-07-22T06:12:23;15.95;74.73
19536;HTU21D;9913;51.168;4.124;2022-07-22T06:14:51;16.10;74.48
19536;HTU21D;9913;51.168;4.124;2022-07-22T06:17:20;16.35;73.98
19536;HTU21D;9913;51.168;4.124;2022-07-22T06:19:48;16.47;73.90
19536;HTU21D;9913;51.168;4.124;2022-07-22T06:22:17;16.61;73.39
19536;HTU21D;9913;51.168;4.124;2022-07-22T06:24:45;16.70;73.25
19536;HTU21D;9913;51.168;4.124;2022-07-22T06:27:16;16.86;73.12
19536;HTU21D;9913;51.168;4.124;2022-07-22T06:29:46;17.15;72.28
19536;HTU21D;9913;51.168;4.124;2022-07-22T06:32:14;17.53;72.09
19536;HTU21D;9913;51.168;4.124;2022-07-22T06:34:47;17.60;71.50
19536;HTU21D;9913;51.168;4.124;2022-07-22T06:37:16;17.32;70.95
19536;HTU21D;9913;51.168;4.124;2022-07-22T06:39:55;17.36;70.64
19536;HTU21D;9913;51.168;4.124;2022-07-22T06:42:39;17.49;70.83
19536;HTU21D;9913;51.168;4.124;2022-07-22T06:45:08;17.62;70.19
19536;HTU21D;9913;51.168;4.124;2022-07-22T06:47:52;17.69;70.20
19536;HTU21D;9913;51.168;4.124;2022-07-22T06:50:24;17.60;70.10
19536;HTU21D;9913;51.168;4.124;2022-07-22T06:52:55;17.62;70.19
19536;HTU21D;9913;51.168;4.124;2022-07-22T06:55:23;17.65;69.53
19536;HTU21D;9913;51.168;4.124;2022-07-22T06:58:10;17.79;69.56
19536;HTU21D;9913;51.168;4.124;2022-07-22T07:00:39;17.85;70.10
19536;HTU21D;9913;51.168;4.124;2022-07-22T07:03:19;18.11;69.30
19536;HTU21D;9913;51.168;4.124;2022-07-22T07:06:09;18.15;68.90
19536;HTU21D;9913;51.168;4.124;2022-07-22T07:08:58;18.09;69.38
19536;HTU21D;9913;51.168;4.124;2022-07-22T07:11:27;18.17;68.69
19536;HTU21D;9913;51.168;4.124;2022-07-22T07:13:58;18.28;68.58
19536;HTU21D;9913;51.168;4.124;2022-07-22T07:16:26;18.29;67.69
19536;HTU21D;9913;51.168;4.124;2022-07-22T07:18:55;18.43;67.59
19536;HTU21D;9913;51.168;4.124;2022-07-22T07:21:24;18.70;68.23
19536;HTU21D;9913;51.168;4.124;2022-07-22T07:23:52;18.61;67.64
19536;HTU21D;9913;51.168;4.124;2022-07-22T07:26:23;18.94;66.93
19536;HTU21D;9913;51.168;4.124;2022-07-22T07:28:52;18.82;66.97
19536;HTU21D;9913;51.168;4.124;2022-07-22T07:31:34;18.87;65.11
19536;HTU21D;9913;51.168;4.124;2022-07-22T07:34:09;18.97;64.78
19536;HTU21D;9913;51.168;4.124;2022-07-22T07:36:38;19.11;66.42
19536;HTU21D;9913;51.168;4.124;2022-07-22T07:39:07;19.18;66.08
19536;HTU21D;9913;51.168;4.124;2022-07-22T07:41:35;19.17;66.75
19536;HTU21D;9913;51.168;4.124;2022-07-22T07:44:09;18.80;65.43
19536;HTU21D;9913;51.168;4.124;2022-07-22T07:46:39;18.73;65.82
19536;HTU21D;9913;51.168;4.124;2022-07-22T07:49:07;18.70;65.82
19536;HTU21D;9913;51.168;4.124;2022-07-22T07:51:36;18.54;66.13
19536;HTU21D;9913;51.168;4.124;2022-07-22T07:54:05;18.41;66.85
19536;HTU21D;9913;51.168;4.124;2022-07-22T07:56:37;18.57;66.07
19536;HTU21D;9913;51.168;4.124;2022-07-22T07:59:05;18.84;65.54
19536;HTU21D;9913;51.168;4.124;2022-07-22T08:01:55;18.96;65.65
19536;HTU21D;9913;51.168;4.124;2022-07-22T08:04:28;19.00;65.71
19536;HTU21D;9913;51.168;4.124;2022-07-22T08:07:07;18.79;64.50
19536;HTU21D;9913;51.168;4.124;2022-07-22T08:09:39;18.85;63.86
19536;HTU21D;9913;51.168;4.124;2022-07-22T08:12:16;19.00;64.13
19536;HTU21D;9913;51.168;4.124;2022-07-22T08:15:08;19.18;64.48
19536;HTU21D;9913;51.168;4.124;2022-07-22T08:18:05;19.52;64.61
19536;HTU21D;9913;51.168;4.124;2022-07-22T08:20:33;19.75;64.47
19536;HTU21D;9913;51.168;4.124;2022-07-22T08:23:02;19.84;63.50
19536;HTU21D;9913;51.168;4.124;2022-07-22T08:25:33;19.72;63.02
19536;HTU21D;9913;51.168;4.124;2022-07-22T08:28:01;19.91;63.03
19536;HTU21D;9913;51.168;4.124;2022-07-22T08:30:30;20.06;62.16
19536;HTU21D;9913;51.168;4.124;2022-07-22T08:32:58;19.90;62.08
19536;HTU21D;9913;51.168;4.124;2022-07-22T08:35:28;19.72;64.02
19536;HTU21D;9913;51.168;4.124;2022-07-22T08:37:57;19.62;62.64
19536;HTU21D;9913;51.168;4.124;2022-07-22T08:40:26;19.96;64.47
19536;HTU21D;9913;51.168;4.124;2022-07-22T08:42:57;20.12;61.86
19536;HTU21D;9913;51.168;4.124;2022-07-22T08:45:30;20.05;62.76
19536;HTU21D;9913;51.168;4.124;2022-07-22T08:47:59;19.96;61.89
19536;HTU21D;9913;51.168;4.124;2022-07-22T08:50:48;19.90;62.06
19536;HTU21D;9913;51.168;4.124;2022-07-22T08:53:52;19.96;61.21
19536;HTU21D;9913;51.168;4.124;2022-07-22T08:56:21;19.98;61.25
19536;HTU21D;9913;51.168;4.124;2022-07-22T08:58:50;20.24;61.63
19536;HTU21D;9913;51.168;4.124;2022-07-22T09:01:18;20.05;61.42
19536;HTU21D;9913;51.168;4.124;2022-07-22T09:03:52;20.36;61.49
19536;HTU21D;9913;51.168;4.124;2022-07-22T09:06:27;20.59;60.31
19536;HTU21D;9913;51.168;4.124;2022-07-22T09:09:03;20.98;60.76
19536;HTU21D;9913;51.168;4.124;2022-07-22T09:12:05;21.32;61.38
19536;HTU21D;9913;51.168;4.124;2022-07-22T09:15:03;20.88;61.63
19536;HTU21D;9913;51.168;4.124;2022-07-22T09:17:41;20.56;60.26
19536;HTU21D;9913;51.168;4.124;2022-07-22T09:20:28;20.42;59.95
19536;HTU21D;9913;51.168;4.124;2022-07-22T09:23:19;20.58;60.21
19536;HTU21D;9913;51.168;4.124;2022-07-22T09:25:50;20.61;59.71
19536;HTU21D;9913;51.168;4.124;2022-07-22T09:28:54;20.81;59.86
19536;HTU21D;9913;51.168;4.124;2022-07-22T09:31:31;21.09;58.87
19536;HTU21D;9913;51.168;4.124;2022-07-22T09:34:31;21.59;59.22
19536;HTU21D;9913;51.168;4.124;2022-07-22T09:37:14;21.28;60.30
19536;HTU21D;9913;51.168;4.124;2022-07-22T09:39:44;22.07;60.21
19536;HTU21D;9913;51.168;4.124;2022-07-22T09:42:14;21.84;58.93
19536;HTU21D;9913;51.168;4.124;2022-07-22T09:44:45;21.33;58.70
19536;HTU21D;9913;51.168;4.124;2022-07-22T09:47:29;21.13;61.90
19536;HTU21D;9913;51.168;4.124;2022-07-22T09:50:24;21.48;60.15
19536;HTU21D;9913;51.168;4.124;2022-07-22T09:53:12;21.99;62.40
19536;HTU21D;9913;51.168;4.124;2022-07-22T09:56:04;22.71;57.81
19536;HTU21D;9913;51.168;4.124;2022-07-22T09:58:33;22.36;60.51
19536;HTU21D;9913;51.168;4.124;2022-07-22T10:01:07;22.84;61.51
19536;HTU21D;9913;51.168;4.124;2022-07-22T10:03:37;22.51;59.86
19536;HTU21D;9913;51.168;4.124;2022-07-22T10:06:09;21.88;60.11
19536;HTU21D;9913;51.168;4.124;2022-07-22T10:08:39;22.42;60.25
19536;HTU21D;9913;51.168;4.124;2022-07-22T10:11:09;22.88;60.60
19536;HTU21D;9913;51.168;4.124;2022-07-22T10:13:41;22.86;57.29
19536;HTU21D;9913;51.168;4.124;2022-07-22T10:16:12;23.38;58.78
19536;HTU21D;9913;51.168;4.124;2022-07-22T10:18:44;23.40;58.45
19536;HTU21D;9913;51.168;4.124;2022-07-22T10:21:17;22.85;55.82
19536;HTU21D;9913;51.168;4.124;2022-07-22T10:24:08;22.50;58.35
19536;HTU21D;9913;51.168;4.124;2022-07-22T10:26:58;22.38;61.19
19536;HTU21D;9913;51.168;4.124;2022-07-22T10:29:30;22.06;59.99
19536;HTU21D;9913;51.168;4.124;2022-07-22T10:32:22;21.79;58.99
19536;HTU21D;9913;51.168;4.124;2022-07-22T10:35:20;22.03;60.62
19536;HTU21D;9913;51.168;4.124;2022-07-22T10:37:52;22.51;57.84
19536;HTU21D;9913;51.168;4.124;2022-07-22T10:40:25;22.29;59.56
19536;HTU21D;9913;51.168;4.124;2022-07-22T10:43:09;22.08;59.33
19536;HTU21D;9913;51.168;4.124;2022-07-22T10:45:40;22.53;59.03
19536;HTU21D;9913;51.168;4.124;2022-07-22T10:48:11;22.81;58.09
19536;HTU21D;9913;51.168;4.124;2022-07-22T10:50:42;22.57;59.38
19536;HTU21D;9913;51.168;4.124;2022-07-22T10:53:12;22.58;59.56
19536;HTU21D;9913;51.168;4.124;2022-07-22T10:55:59;22.84;60.22
19536;HTU21D;9913;51.168;4.124;2022-07-22T10:58:47;22.81;61.62
19536;HTU21D;9913;51.168;4.124;2022-07-22T11:01:17;22.92;59.51
19536;HTU21D;9913;51.168;4.124;2022-07-22T11:03:50;23.36;60.38
19536;HTU21D;9913;51.168;4.124;2022-07-22T11:06:28;23.10;58.47
19536;HTU21D;9913;51.168;4.124;2022-07-22T11:08:58;22.97;58.35
19536;HTU21D;9913;51.168;4.124;2022-07-22T11:11:36;23.16;60.70
19536;HTU21D;9913;51.168;4.124;2022-07-22T11:14:20;22.98;60.47
19536;HTU21D;9913;51.168;4.124;2022-07-22T11:16:50;23.34;60.07
19536;HTU21D;9913;51.168;4.124;2022-07-22T11:19:20;23.27;58.82
19536;HTU21D;9913;51.168;4.124;2022-07-22T11:21:51;23.45;58.38
19536;HTU21D;9913;51.168;4.124;2022-07-22T11:24:20;23.51;58.15
19536;HTU21D;9913;51.168;4.124;2022-07-22T11:26:51;23.28;57.39
19536;HTU21D;9913;51.168;4.124;2022-07-22T11:29:26;22.81;57.66
19536;HTU21D;9913;51.168;4.124;2022-07-22T11:31:56;22.75;60.38
19536;HTU21D;9913;51.168;4.124;2022-07-22T11:34:26;23.18;58.39
19536;HTU21D;9913;51.168;4.124;2022-07-22T11:36:56;23.45;57.52
19536;HTU21D;9913;51.168;4.124;2022-07-22T11:39:26;23.52;57.35
19536;HTU21D;9913;51.168;4.124;2022-07-22T11:41:58;23.88;55.98
19536;HTU21D;9913;51.168;4.124;2022-07-22T11:44:29;23.53;56.83
19536;HTU21D;9913;51.168;4.124;2022-07-22T11:46:59;23.61;57.52
19536;HTU21D;9913;51.168;4.124;2022-07-22T11:49:30;23.43;57.62
19536;HTU21D;9913;51.168;4.124;2022-07-22T11:52:01;23.23;58.90
19536;HTU21D;9913;51.168;4.124;2022-07-22T11:54:29;23.17;57.01
19536;HTU21D;9913;51.168;4.124;2022-07-22T11:56:57;22.68;57.02
19536;HTU21D;9913;51.168;4.124;2022-07-22T11:59:27;22.91;58.38
19536;HTU21D;9913;51.168;4.124;2022-07-22T12:01:56;22.72;57.36
19536;HTU21D;9913;51.168;4.124;2022-07-22T12:04:26;22.73;58.13
19536;HTU21D;9913;51.168;4.124;2022-07-22T12:06:58;22.87;59.32
19536;HTU21D;9913;51.168;4.124;2022-07-22T12:09:30;23.01;58.69
19536;HTU21D;9913;51.168;4.124;2022-07-22T12:11:59;23.18;56.29
19536;HTU21D;9913;51.168;4.124;2022-07-22T12:14:31;23.40;57.69
19536;HTU21D;9913;51.168;4.124;2022-07-22T12:17:05;23.49;56.42
19536;HTU21D;9913;51.168;4.124;2022-07-22T12:19:35;23.39;55.80
19536;HTU21D;9913;51.168;4.124;2022-07-22T12:22:06;23.34;55.69
19536;HTU21D;9913;51.168;4.124;2022-07-22T12:24:37;23.29;56.53
19536;HTU21D;9913;51.168;4.124;2022-07-22T12:27:06;23.47;56.74
19536;HTU21D;9913;51.168;4.124;2022-07-22T12:29:43;23.45;56.23
19536;HTU21D;9913;51.168;4.124;2022-07-22T12:32:16;23.27;55.02
19536;HTU21D;9913;51.168;4.124;2022-07-22T12:34:46;23.34;56.25
19536;HTU21D;9913;51.168;4.124;2022-07-22T12:37:17;23.11;56.65
19536;HTU21D;9913;51.168;4.124;2022-07-22T12:39:53;23.03;55.96
19536;HTU21D;9913;51.168;4.124;2022-07-22T12:42:22;23.23;55.13
19536;HTU21D;9913;51.168;4.124;2022-07-22T12:44:54;23.36;56.36
19536;HTU21D;9913;51.168;4.124;2022-07-22T12:47:47;23.13;55.10
19536;HTU21D;9913;51.168;4.124;2022-07-22T12:50:22;23.07;56.59
19536;HTU21D;9913;51.168;4.124;2022-07-22T12:52:52;23.29;55.12
19536;HTU21D;9913;51.168;4.124;2022-07-22T12:55:42;23.06;54.67
19536;HTU21D;9913;51.168;4.124;2022-07-22T12:58:12;23.50;55.82
19536;HTU21D;9913;51.168;4.124;2022-07-22T13:00:46;23.52;55.02
19536;HTU21D;9913;51.168;4.124;2022-07-22T13:03:15;23.90;55.09
19536;HTU21D;9913;51.168;4.124;2022-07-22T13:05:47;23.76;53.80
19536;HTU21D;9913;51.168;4.124;2022-07-22T13:08:16;23.57;54.23
19536;HTU21D;9913;51.168;4.124;2022-07-22T13:10:46;23.83;56.31
19536;HTU21D;9913;51.168;4.124;2022-07-22T13:13:14;24.01;55.94
19536;HTU21D;9913;51.168;4.124;2022-07-22T13:15:44;23.81;53.96
19536;HTU21D;9913;51.168;4.124;2022-07-22T13:18:13;23.76;55.10
19536;HTU21D;9913;51.168;4.124;2022-07-22T13:20:42;23.65;55.15
19536;HTU21D;9913;51.168;4.124;2022-07-22T13:23:10;23.51;55.20
19536;HTU21D;9913;51.168;4.124;2022-07-22T13:25:38;23.65;56.35
19536;HTU21D;9913;51.168;4.124;2022-07-22T13:28:07;23.59;57.00
19536;HTU21D;9913;51.168;4.124;2022-07-22T13:30:36;23.58;55.81
19536;HTU21D;9913;51.168;4.124;2022-07-22T13:33:06;23.13;55.02
19536;HTU21D;9913;51.168;4.124;2022-07-22T13:35:35;23.26;56.36
19536;HTU21D;9913;51.168;4.124;2022-07-22T13:38:03;23.51;54.68
19536;HTU21D;9913;51.168;4.124;2022-07-22T13:40:36;23.59;54.59
19536;HTU21D;9913;51.168;4.124;2022-07-22T13:43:05;23.79;54.89
19536;HTU21D;9913;51.168;4.124;2022-07-22T13:45:40;23.54;55.34
19536;HTU21D;9913;51.168;4.124;2022-07-22T13:48:10;23.51;56.03
19536;HTU21D;9913;51.168;4.124;2022-07-22T13:50:39;23.53;56.74
19536;HTU21D;9913;51.168;4.124;2022-07-22T13:53:07;23.73;55.74
19536;HTU21D;9913;51.168;4.124;2022-07-22T13:55:37;23.47;56.00
19536;HTU21D;9913;51.168;4.124;2022-07-22T13:58:06;23.76;54.24
19536;HTU21D;9913;51.168;4.124;2022-07-22T14:00:34;23.69;56.89
19536;HTU21D;9913;51.168;4.124;2022-07-22T14:03:04;23.66;54.20
19536;HTU21D;9913;51.168;4.124;2022-07-22T14:05:34;23.45;56.48
19536;HTU21D;9913;51.168;4.124;2022-07-22T14:08:03;23.36;55.74
19536;HTU21D;9913;51.168;4.124;2022-07-22T14:10:32;23.58;54.01
19536;HTU21D;9913;51.168;4.124;2022-07-22T14:13:00;23.59;54.11
19536;HTU21D;9913;51.168;4.124;2022-07-22T14:15:29;23.28;55.61
19536;HTU21D;9913;51.168;4.124;2022-07-22T14:17:57;23.05;56.81
19536;HTU21D;9913;51.168;4.124;2022-07-22T14:20:26;22.81;56.13
19536;HTU21D;9913;51.168;4.124;2022-07-22T14:22:55;22.94;57.03
19536;HTU21D;9913;51.168;4.124;2022-07-22T14:25:24;22.64;56.87
19536;HTU21D;9913;51.168;4.124;2022-07-22T14:27:52;22.73;57.32
19536;HTU21D;9913;51.168;4.124;2022-07-22T14:30:40;23.11;57.45
19536;HTU21D;9913;51.168;4.124;2022-07-22T14:33:09;22.90;57.19
19536;HTU21D;9913;51.168;4.124;2022-07-22T14:35:37;23.06;56.71
19536;HTU21D;9913;51.168;4.124;2022-07-22T14:38:07;23.06;56.41
19536;HTU21D;9913;51.168;4.124;2022-07-22T14:40:35;22.90;56.44
19536;HTU21D;9913;51.168;4.124;2022-07-22T14:43:05;22.97;57.59
19536;HTU21D;9913;51.168;4.124;2022-07-22T14:45:54;22.72;57.35
19536;HTU21D;9913;51.168;4.124;2022-07-22T14:48:22;22.66;57.33
19536;HTU21D;9913;51.168;4.124;2022-07-22T14:50:51;22.76;57.37
19536;HTU21D;9913;51.168;4.124;2022-07-22T14:53:20;23.03;57.14
19536;HTU21D;9913;51.168;4.124;2022-07-22T14:55:49;23.03;56.89
19536;HTU21D;9913;51.168;4.124;2022-07-22T14:58:17;22.83;56.75
19536;HTU21D;9913;51.168;4.124;2022-07-22T15:00:46;22.68;56.80
19536;HTU21D;9913;51.168;4.124;2022-07-22T15:03:14;22.86;56.97
19536;HTU21D;9913;51.168;4.124;2022-07-22T15:05:43;22.46;57.42
19536;HTU21D;9913;51.168;4.124;2022-07-22T15:08:11;22.55;56.88
19536;HTU21D;9913;51.168;4.124;2022-07-22T15:10:41;22.67;57.35
19536;HTU21D;9913;51.168;4.124;2022-07-22T15:13:09;22.94;57.29
19536;HTU21D;9913;51.168;4.124;2022-07-22T15:15:37;23.07;55.75
19536;HTU21D;9913;51.168;4.124;2022-07-22T15:18:07;22.77;56.72
19536;HTU21D;9913;51.168;4.124;2022-07-22T15:20:36;22.56;56.66
19536;HTU21D;9913;51.168;4.124;2022-07-22T15:23:04;22.08;58.07
19536;HTU21D;9913;51.168;4.124;2022-07-22T15:25:35;22.10;59.05
19536;HTU21D;9913;51.168;4.124;2022-07-22T15:28:05;21.95;58.64
19536;HTU21D;9913;51.168;4.124;2022-07-22T15:30:55;22.12;58.51
19536;HTU21D;9913;51.168;4.124;2022-07-22T15:33:24;22.25;57.49
19536;HTU21D;9913;51.168;4.124;2022-07-22T15:36:03;22.22;58.54
19536;HTU21D;9913;51.168;4.124;2022-07-22T15:38:32;22.20;57.49
19536;HTU21D;9913;51.168;4.124;2022-07-22T15:41:01;22.01;57.89
19536;HTU21D;9913;51.168;4.124;2022-07-22T15:43:31;21.88;58.70
19536;HTU21D;9913;51.168;4.124;2022-07-22T15:45:59;21.87;59.14
19536;HTU21D;9913;51.168;4.124;2022-07-22T15:48:28;21.78;59.40
19536;HTU21D;9913;51.168;4.124;2022-07-22T15:50:57;21.59;59.29
19536;HTU21D;9913;51.168;4.124;2022-07-22T15:53:29;21.50;59.69
19536;HTU21D;9913;51.168;4.124;2022-07-22T15:55:58;21.50;59.12
19536;HTU21D;9913;51.168;4.124;2022-07-22T15:58:26;21.22;59.19
19536;HTU21D;9913;51.168;4.124;2022-07-22T16:01:34;20.79;60.28